createdAt,value
2023-05-05T00:02:24.575Z,100878.94
2023-05-05T00:05:27.098Z,100846.69
2023-05-05T00:08:29.717Z,100871.47
2023-05-05T00:11:32.209Z,100867.78
2023-05-05T00:14:34.657Z,100863.72
2023-05-05T00:17:37.240Z,100871.50
2023-05-05T00:20:39.834Z,100866.34
2023-05-05T00:23:42.283Z,100852.63
2023-05-05T00:26:44.782Z,100863.25
2023-05-05T00:29:47.426Z,100859.75
2023-05-05T00:32:51.077Z,100857.97
2023-05-05T00:35:53.461Z,100828.78
2023-05-05T00:38:56.534Z,100812.06
2023-05-05T00:41:59.454Z,100852.00
2023-05-05T00:45:02.246Z,100859.13
2023-05-05T00:48:05.704Z,100837.44
2023-05-05T00:51:09.667Z,100834.56
2023-05-05T00:54:12.184Z,100866.59
2023-05-05T00:57:14.685Z,100831.44
2023-05-05T01:00:18.074Z,100828.47
2023-05-05T01:03:21.005Z,100859.03
2023-05-05T01:06:35.226Z,100857.44
2023-05-05T01:10:15.645Z,100857.69
2023-05-05T01:13:42.696Z,100831.31
2023-05-05T01:17:04.509Z,100834.34
2023-05-05T01:20:22.418Z,100856.63
2023-05-05T01:23:52.542Z,100851.41
2023-05-05T01:27:12.948Z,100850.41
2023-05-05T01:30:46.301Z,100845.91
2023-05-05T01:33:55.091Z,100850.94
2023-05-05T01:37:26.968Z,100823.91
2023-05-05T01:40:40.505Z,100811.84
2023-05-05T01:43:46.131Z,100836.88
2023-05-05T01:46:52.012Z,100836.50
2023-05-05T01:49:54.802Z,100859.75
2023-05-05T01:52:57.795Z,100846.28
2023-05-05T01:56:02.153Z,100828.84
2023-05-05T01:59:05.586Z,100837.44
2023-05-05T02:02:11.259Z,100835.94
2023-05-05T02:05:15.549Z,100833.41
2023-05-05T02:08:19.258Z,100805.66
2023-05-05T02:11:21.889Z,100826.91
2023-05-05T02:14:27.114Z,100810.03
2023-05-05T02:17:30.513Z,100829.22
2023-05-05T02:20:33.990Z,100813.56
2023-05-05T02:23:36.526Z,100814.66
2023-05-05T02:26:40.715Z,100819.19
2023-05-05T02:29:48.992Z,100810.78
2023-05-05T02:33:00.052Z,100827.00
2023-05-05T02:36:12.411Z,100795.06
2023-05-05T02:39:51.609Z,100803.56
2023-05-05T02:42:57.425Z,100821.53
2023-05-05T02:46:04.595Z,100803.88
2023-05-05T02:49:08.603Z,100813.19
2023-05-05T02:52:12.976Z,100803.78
2023-05-05T02:55:17.108Z,100821.69
2023-05-05T02:58:42.846Z,100841.41
2023-05-05T03:02:11.985Z,100838.19
2023-05-05T03:05:25.261Z,100842.03
2023-05-05T03:08:40.980Z,100843.66
2023-05-05T03:11:53.310Z,100817.34
2023-05-05T03:14:58.543Z,100850.72
2023-05-05T03:18:04.019Z,100846.16
2023-05-05T03:21:10.225Z,100849.53
2023-05-05T03:24:17.341Z,100822.44
2023-05-05T03:27:24.887Z,100851.19
2023-05-05T03:30:27.529Z,100839.88
2023-05-05T03:33:29.932Z,100844.53
2023-05-05T03:36:35.888Z,100818.28
2023-05-05T03:39:38.899Z,100850.75
2023-05-05T03:42:42.933Z,100831.16
2023-05-05T03:45:45.437Z,100829.72
2023-05-05T03:48:48.760Z,100856.03
2023-05-05T03:51:51.437Z,100835.47
2023-05-05T03:54:54.661Z,100859.00
2023-05-05T03:57:57.084Z,100834.63
2023-05-05T04:00:59.586Z,100863.38
2023-05-05T04:04:02.517Z,100853.16
2023-05-05T04:07:04.976Z,100837.56
2023-05-05T04:10:08.650Z,100813.53
2023-05-05T04:13:11.975Z,100868.59
2023-05-05T04:16:14.916Z,100867.59
2023-05-05T04:19:18.018Z,100855.63
2023-05-05T04:22:21.211Z,100878.00
2023-05-05T04:25:23.709Z,100881.25
2023-05-05T04:28:26.341Z,100881.09
2023-05-05T04:31:29.065Z,100867.06
2023-05-05T04:34:31.491Z,100888.94
2023-05-05T04:37:33.872Z,100892.75
2023-05-05T04:40:40.138Z,100887.69
2023-05-05T04:43:43.808Z,100899.41
2023-05-05T04:46:46.280Z,100877.28
2023-05-05T04:49:49.762Z,100873.03
2023-05-05T04:52:52.882Z,100897.72
2023-05-05T04:55:55.772Z,100899.25
2023-05-05T04:58:58.303Z,100880.47
2023-05-05T05:02:01.264Z,100902.09
2023-05-05T05:05:04.105Z,100886.28
2023-05-05T05:08:06.540Z,100911.44
2023-05-05T05:11:09.048Z,100910.34
2023-05-05T05:14:11.497Z,100893.66
2023-05-05T05:17:13.907Z,100873.56
2023-05-05T05:20:17.340Z,100921.28
2023-05-05T05:23:19.765Z,100900.03
2023-05-05T05:26:23.290Z,100912.66
2023-05-05T05:29:27.136Z,100910.22
2023-05-05T05:32:30.358Z,100887.47
2023-05-05T05:35:33.122Z,100888.72
2023-05-05T05:38:35.798Z,100916.34
2023-05-05T05:41:39.738Z,100906.91
2023-05-05T05:44:42.777Z,100891.53
2023-05-05T05:47:45.299Z,100913.50
2023-05-05T05:50:47.996Z,100898.94
2023-05-05T05:53:51.884Z,100933.03
2023-05-05T05:56:55.082Z,100930.78
2023-05-05T05:59:59.244Z,100922.78
2023-05-05T06:03:03.120Z,100934.22
2023-05-05T06:06:09.030Z,100925.72
2023-05-05T06:09:11.496Z,100922.38
2023-05-05T06:12:14.100Z,100945.66
2023-05-05T06:15:16.584Z,100927.84
2023-05-05T06:18:19.272Z,100943.53
2023-05-05T06:21:21.776Z,100939.34
2023-05-05T06:24:24.279Z,100938.88
2023-05-05T06:27:26.640Z,100921.22
2023-05-05T06:30:29.198Z,100918.84
2023-05-05T06:33:31.638Z,100930.78
2023-05-05T06:36:34.057Z,100930.72
2023-05-05T06:39:36.496Z,100929.50
2023-05-05T06:42:39.297Z,100937.13
2023-05-05T06:45:44.813Z,100948.09
2023-05-05T06:48:47.593Z,100948.13
2023-05-05T06:51:50.093Z,100936.53
2023-05-05T06:54:52.486Z,100928.06
2023-05-05T06:57:54.963Z,100927.28
2023-05-05T07:00:57.404Z,100934.63
2023-05-05T07:04:00.343Z,100937.63
2023-05-05T07:07:02.945Z,100948.88
2023-05-05T07:10:06.276Z,100928.72
2023-05-05T07:13:09.051Z,100947.00
2023-05-05T07:16:11.543Z,100915.25
2023-05-05T07:19:13.983Z,100925.13
2023-05-05T07:22:16.572Z,100945.72
2023-05-05T07:25:19.139Z,100937.38
2023-05-05T07:28:22.447Z,100941.38
2023-05-05T07:31:26.409Z,100942.50
2023-05-05T07:34:29.062Z,100926.63
2023-05-05T07:37:31.599Z,100919.13
2023-05-05T07:40:36.913Z,100918.78
2023-05-05T07:43:42.820Z,100922.38
2023-05-05T07:46:46.981Z,100920.13
2023-05-05T07:49:49.397Z,100930.56
2023-05-05T07:52:59.371Z,100936.03
2023-05-05T07:56:12.910Z,100936.75
2023-05-05T07:59:15.570Z,100918.16
2023-05-05T08:02:18.282Z,100934.88
2023-05-05T08:05:20.799Z,100932.56
2023-05-05T08:08:25.066Z,100928.34
2023-05-05T08:11:29.613Z,100929.22
2023-05-05T08:14:32.872Z,100926.88
2023-05-05T08:18:04.398Z,100933.22
2023-05-05T08:21:08.837Z,100934.19
2023-05-05T08:24:11.309Z,100916.38
2023-05-05T08:27:14.176Z,100928.84
2023-05-05T08:30:20.797Z,100921.50
2023-05-05T08:33:23.168Z,100913.69
2023-05-05T08:36:25.639Z,100937.09
2023-05-05T08:39:28.384Z,100935.03
2023-05-05T08:42:37.736Z,100919.63
2023-05-05T08:45:42.112Z,100913.25
2023-05-05T08:48:45.935Z,100916.28
2023-05-05T08:51:49.839Z,100916.97
2023-05-05T08:55:00.280Z,100930.16
2023-05-05T08:58:04.295Z,100905.97
2023-05-05T09:01:07.538Z,100895.69
2023-05-05T09:04:11.041Z,100902.38
2023-05-05T09:07:13.792Z,100907.94
2023-05-05T09:10:16.411Z,100886.13
2023-05-05T09:13:18.874Z,100906.44
2023-05-05T09:16:22.537Z,100884.81
2023-05-05T09:19:25.149Z,100880.84
2023-05-05T09:22:42.206Z,100898.41
2023-05-05T09:26:02.430Z,100878.94
2023-05-05T09:29:05.755Z,100888.91
2023-05-05T09:32:09.029Z,100890.75
2023-05-05T09:35:11.717Z,100888.78
2023-05-05T09:38:14.200Z,100895.13
2023-05-05T09:41:36.760Z,100884.09
2023-05-05T09:44:40.684Z,100866.22
2023-05-05T09:47:43.090Z,100858.03
2023-05-05T09:50:45.776Z,100851.31
2023-05-05T09:53:48.283Z,100871.16
2023-05-05T09:56:52.334Z,100856.94
2023-05-05T09:59:59.723Z,100871.13
2023-05-05T10:03:03.120Z,100865.94
2023-05-05T10:06:07.794Z,100868.72
2023-05-05T10:09:10.876Z,100850.97
2023-05-05T10:12:13.462Z,100856.09
2023-05-05T10:15:16.277Z,100854.75
2023-05-05T10:18:28.770Z,100839.47
2023-05-05T10:21:34.263Z,100841.53
2023-05-05T10:24:47.176Z,100844.34
2023-05-05T10:27:55.575Z,100827.56
2023-05-05T10:31:00.587Z,100825.13
2023-05-05T10:34:10.461Z,100838.25
2023-05-05T10:37:13.207Z,100840.16
2023-05-05T10:40:17.753Z,100828.13
2023-05-05T10:43:20.944Z,100809.44
2023-05-05T10:46:25.604Z,100809.34
2023-05-05T10:49:41.138Z,100798.03
2023-05-05T10:53:17.389Z,100800.66
2023-05-05T10:56:33.819Z,100807.75
2023-05-05T10:59:39.058Z,100806.81
2023-05-05T11:02:42.029Z,100784.25
2023-05-05T11:06:05.613Z,100801.41
2023-05-05T11:09:27.866Z,100800.81
2023-05-05T11:12:32.693Z,100791.47
2023-05-05T11:15:37.694Z,100771.88
2023-05-05T11:18:44.418Z,100765.63
2023-05-05T11:22:02.516Z,100780.53
2023-05-05T11:25:37.580Z,100775.31
2023-05-05T11:28:56.752Z,100764.88
2023-05-05T11:32:15.880Z,100749.66
2023-05-05T11:35:18.764Z,100765.22
2023-05-05T11:38:26.966Z,100743.88
2023-05-05T11:41:32.186Z,100753.00
2023-05-05T11:44:35.746Z,100745.28
2023-05-05T11:47:38.218Z,100733.34
2023-05-05T11:50:40.849Z,100735.06
2023-05-05T11:53:44.943Z,100731.38
2023-05-05T11:56:51.231Z,100721.41
2023-05-05T11:59:58.075Z,100747.81
2023-05-05T12:03:00.969Z,100734.34
2023-05-05T12:06:04.654Z,100735.69
2023-05-05T12:09:15.457Z,100745.16
2023-05-05T12:12:20.166Z,100723.50
2023-05-05T12:15:32.380Z,100700.72
2023-05-05T12:18:34.715Z,100710.72
2023-05-05T12:21:38.316Z,100705.91
2023-05-05T12:24:41.114Z,100720.13
2023-05-05T12:27:52.067Z,100709.69
2023-05-05T12:30:58.973Z,100714.31
2023-05-05T12:34:06.112Z,100712.78
2023-05-05T12:37:08.542Z,100707.22
2023-05-05T12:40:44.876Z,100708.94
2023-05-05T12:43:48.036Z,100717.09
2023-05-05T12:46:52.945Z,100707.69
2023-05-05T12:49:56.090Z,100699.34
2023-05-05T12:52:58.580Z,100693.72
2023-05-05T12:56:00.990Z,100699.75
2023-05-05T12:59:07.718Z,100698.75
2023-05-05T13:02:10.207Z,100688.28
2023-05-05T13:05:12.654Z,100663.34
2023-05-05T13:08:15.134Z,100659.56
2023-05-05T13:11:18.599Z,100650.94
2023-05-05T13:14:22.322Z,100670.53
2023-05-05T13:17:25.007Z,100653.38
2023-05-05T13:20:27.731Z,100666.97
2023-05-05T13:23:30.703Z,100649.50
2023-05-05T13:26:33.259Z,100640.72
2023-05-05T13:29:35.865Z,100644.84
2023-05-05T13:32:38.334Z,100645.22
2023-05-05T13:35:41.316Z,100652.22
2023-05-05T13:38:43.892Z,100636.63
2023-05-05T13:41:46.598Z,100654.75
2023-05-05T13:44:49.105Z,100638.22
2023-05-05T13:47:51.663Z,100652.44
2023-05-05T13:50:54.027Z,100651.72
2023-05-05T13:53:57.009Z,100617.63
2023-05-05T13:57:00.055Z,100621.28
2023-05-05T14:00:04.130Z,100628.81
2023-05-05T14:03:09.857Z,100605.59
2023-05-05T14:06:12.275Z,100613.06
2023-05-05T14:09:14.887Z,100613.53
2023-05-05T14:12:17.327Z,100603.53
2023-05-05T14:15:19.766Z,100620.25
2023-05-05T14:18:22.794Z,100616.44
2023-05-05T14:21:25.245Z,100607.38
2023-05-05T14:24:27.756Z,100615.50
2023-05-05T14:27:30.225Z,100596.66
2023-05-05T14:30:32.743Z,100600.47
2023-05-05T14:33:35.243Z,100613.75
2023-05-05T14:36:37.620Z,100615.75
2023-05-05T14:39:40.163Z,100623.00
2023-05-05T14:42:42.856Z,100606.78
2023-05-05T14:45:45.397Z,100608.94
2023-05-05T14:48:48.406Z,100591.53
2023-05-05T14:51:50.870Z,100582.81
2023-05-05T14:54:53.533Z,100613.78
2023-05-05T14:57:56.107Z,100595.97
2023-05-05T15:00:58.987Z,100612.59
2023-05-05T15:04:01.533Z,100611.41
2023-05-05T15:07:04.360Z,100592.63
2023-05-05T15:10:07.665Z,100609.34
2023-05-05T15:13:10.152Z,100609.78
2023-05-05T15:16:12.664Z,100584.09
2023-05-05T15:19:15.120Z,100603.31
2023-05-05T15:22:17.818Z,100585.72
2023-05-05T15:25:20.664Z,100611.13
2023-05-05T15:28:24.265Z,100591.25
2023-05-05T15:31:26.732Z,100586.38
2023-05-05T15:34:29.291Z,100602.19
2023-05-05T15:37:31.850Z,100607.50
2023-05-05T15:40:34.415Z,100602.19
2023-05-05T15:43:36.834Z,100578.78
2023-05-05T15:46:39.805Z,100576.97
2023-05-05T15:49:42.375Z,100602.59
2023-05-05T15:52:44.791Z,100578.63
2023-05-05T15:55:47.270Z,100591.63
2023-05-05T15:58:55.621Z,100580.09
2023-05-05T16:02:03.123Z,100590.78
2023-05-05T16:05:10.185Z,100581.59
2023-05-05T16:08:15.024Z,100564.84
2023-05-05T16:11:17.542Z,100568.59
2023-05-05T16:14:20.328Z,100558.03
2023-05-05T16:17:22.902Z,100555.28
2023-05-05T16:20:25.345Z,100536.75
2023-05-05T16:23:27.744Z,100580.22
2023-05-05T16:26:30.177Z,100561.28
2023-05-05T16:29:32.599Z,100579.66
2023-05-05T16:32:35.032Z,100564.16
2023-05-05T16:35:37.474Z,100556.09
2023-05-05T16:38:40.564Z,100561.44
2023-05-05T16:42:03.877Z,100569.47
2023-05-05T16:45:09.435Z,100563.06
2023-05-05T16:48:13.781Z,100587.44
2023-05-05T16:51:16.226Z,100565.47
2023-05-05T16:54:18.611Z,100565.38
2023-05-05T16:57:23.948Z,100584.88
2023-05-05T17:00:26.468Z,100555.78
2023-05-05T17:03:29.083Z,100590.03
2023-05-05T17:06:34.286Z,100560.72
2023-05-05T17:09:36.816Z,100592.97
2023-05-05T17:12:39.306Z,100570.69
2023-05-05T17:15:42.000Z,100589.72
2023-05-05T17:18:44.521Z,100597.25
2023-05-05T17:21:47.079Z,100584.16
2023-05-05T17:24:49.494Z,100595.66
2023-05-05T17:27:52.838Z,100583.75
2023-05-05T17:30:55.334Z,100609.59
2023-05-05T17:33:57.830Z,100598.00
2023-05-05T17:37:00.327Z,100588.03
2023-05-05T17:40:03.353Z,100597.28
2023-05-05T17:43:05.754Z,100577.41
2023-05-05T17:46:08.204Z,100576.97
2023-05-05T17:49:10.586Z,100581.25
2023-05-05T17:52:13.122Z,100594.09
2023-05-05T17:55:15.736Z,100581.72
2023-05-05T17:58:18.216Z,100599.59
2023-05-05T18:01:25.212Z,100602.41
2023-05-05T18:04:28.537Z,100561.00
2023-05-05T18:07:30.924Z,100620.97
2023-05-05T18:10:33.352Z,100609.31
2023-05-05T18:13:35.992Z,100591.47
2023-05-05T18:16:38.467Z,100593.41
2023-05-05T18:19:46.153Z,100621.75
2023-05-05T18:22:50.447Z,100598.50
2023-05-05T18:25:52.841Z,100623.78
2023-05-05T18:28:55.198Z,100620.09
2023-05-05T18:31:57.664Z,100612.28
2023-05-05T18:35:00.097Z,100607.31
2023-05-05T18:38:03.364Z,100597.75
2023-05-05T18:41:05.799Z,100612.81
2023-05-05T18:44:08.362Z,100614.97
2023-05-05T18:47:10.810Z,100625.19
2023-05-05T18:50:13.616Z,100609.66
2023-05-05T18:53:17.721Z,100586.41
2023-05-05T18:56:21.536Z,100615.47
2023-05-05T18:59:23.995Z,100615.69
2023-05-05T19:02:26.980Z,100642.78
2023-05-05T19:05:29.729Z,100631.38
2023-05-05T19:08:32.158Z,100634.50
2023-05-05T19:11:34.633Z,100612.91
2023-05-05T19:14:37.107Z,100619.41
2023-05-05T19:17:39.969Z,100615.81
2023-05-05T19:20:43.596Z,100611.66
2023-05-05T19:23:46.188Z,100639.78
2023-05-05T19:26:48.750Z,100617.56
2023-05-05T19:29:52.644Z,100608.09
2023-05-05T19:32:55.617Z,100634.63
2023-05-05T19:35:58.187Z,100621.94
2023-05-05T19:39:01.930Z,100627.59
2023-05-05T19:42:04.965Z,100630.03
2023-05-05T19:45:07.934Z,100604.81
2023-05-05T19:48:10.562Z,100571.53
2023-05-05T19:51:13.199Z,100627.97
2023-05-05T19:54:16.281Z,100625.41
2023-05-05T19:57:18.858Z,100612.53
2023-05-05T20:00:21.653Z,100628.22
2023-05-05T20:03:24.108Z,100631.75
2023-05-05T20:06:27.111Z,100630.53
2023-05-05T20:09:29.809Z,100638.28
2023-05-05T20:12:32.403Z,100628.94
2023-05-05T20:15:34.984Z,100634.31
2023-05-05T20:18:37.520Z,100628.34
2023-05-05T20:21:40.218Z,100632.63
2023-05-05T20:24:42.669Z,100627.34
2023-05-05T20:27:45.829Z,100619.13
2023-05-05T20:30:48.347Z,100629.00
2023-05-05T20:33:51.088Z,100625.91
2023-05-05T20:36:54.371Z,100620.78
2023-05-05T20:39:58.236Z,100620.38
2023-05-05T20:43:00.686Z,100616.94
2023-05-05T20:46:03.274Z,100587.38
2023-05-05T20:49:06.072Z,100619.56
2023-05-05T20:52:09.293Z,100582.03
2023-05-05T20:55:11.706Z,100617.41
2023-05-05T20:58:14.124Z,100581.66
2023-05-05T21:01:16.978Z,100607.59
2023-05-05T21:04:19.610Z,100551.22
2023-05-05T21:07:21.969Z,100615.81
2023-05-05T21:10:24.434Z,100614.59
2023-05-05T21:13:27.589Z,100591.97
2023-05-05T21:16:29.970Z,100613.34
2023-05-05T21:19:32.559Z,100588.16
2023-05-05T21:22:35.234Z,100607.25
2023-05-05T21:25:37.667Z,100589.63
2023-05-05T21:28:40.093Z,100617.91
2023-05-05T21:31:42.500Z,100620.34
2023-05-05T21:34:45.438Z,100625.41
2023-05-05T21:37:48.878Z,100615.91
2023-05-05T21:40:58.925Z,100591.44
2023-05-05T21:44:01.348Z,100625.75
2023-05-05T21:47:05.433Z,100608.94
2023-05-05T21:50:09.716Z,100618.09
2023-05-05T21:53:12.279Z,100620.50
2023-05-05T21:56:14.670Z,100607.50
2023-05-05T21:59:17.430Z,100614.47
2023-05-05T22:02:20.128Z,100601.63
2023-05-05T22:05:23.152Z,100580.84
2023-05-05T22:08:25.514Z,100596.44
2023-05-05T22:11:28.227Z,100608.34
2023-05-05T22:14:30.634Z,100586.09
2023-05-05T22:17:33.023Z,100607.13
2023-05-05T22:20:35.495Z,100579.78
2023-05-05T22:23:39.137Z,100598.19
2023-05-05T22:26:43.349Z,100573.28
2023-05-05T22:29:46.627Z,100597.34
2023-05-05T22:32:49.174Z,100610.78
2023-05-05T22:35:52.092Z,100597.97
2023-05-05T22:38:54.952Z,100585.81
2023-05-05T22:41:58.111Z,100582.22
2023-05-05T22:45:01.099Z,100577.25
2023-05-05T22:48:03.868Z,100575.22
2023-05-05T22:51:06.562Z,100578.72
2023-05-05T22:54:09.323Z,100570.38
2023-05-05T22:57:11.848Z,100546.13
2023-05-05T23:00:14.675Z,100611.31
2023-05-05T23:03:17.127Z,100610.78
2023-05-05T23:06:19.639Z,100593.03
2023-05-05T23:09:22.106Z,100609.88
2023-05-05T23:12:24.591Z,100584.94
2023-05-05T23:15:27.518Z,100602.50
2023-05-05T23:18:29.907Z,100577.91
2023-05-05T23:21:36.259Z,100620.41
2023-05-05T23:24:44.686Z,100583.00
2023-05-05T23:27:47.984Z,100610.28
2023-05-05T23:30:50.528Z,100604.31
2023-05-05T23:33:53.005Z,100602.38
2023-05-05T23:36:55.941Z,100601.53
2023-05-05T23:39:58.376Z,100605.72
2023-05-05T23:43:01.106Z,100596.97
2023-05-05T23:46:03.583Z,100574.97
2023-05-05T23:49:06.226Z,100563.75
2023-05-05T23:52:08.745Z,100596.34
2023-05-05T23:55:11.606Z,100592.97
2023-05-05T23:58:14.159Z,100564.09
